• Join FlightAware (Why Join?)
  • Login
  • US Flag 
12:33PM EDT


 

Airport Tracker/Info


-or-


 

Live Flight TrackerFlight Track Log ✈ RPA3321 ✈ 25-Jun-2013 ✈ KALB - KDCA

Flight Track Log - Related Links

Times and Time Zones

All times are in EDT time to prevent confusion due to time zone crossing. See the RPA3321 flight status page for this flight to view local times or setup timezone preferences in your user account.

Time Position Orientation Groundspeed Altitude Reporting Facility
EDT Latitude Longitude Course Direction KTS MPH feet Rate Location/Type
05:44AM 42.7736 -73.8064 318° Northwest 163 188 1,300  Level Boston Center
05:45AM 42.8086 -73.8494 318° Northwest 208 239 3,000 2,160 Climbing Boston Center
05:47AM 42.8150 -73.9883 274° West 263 303 7,000 2,520 Climbing Boston Center
05:48AM 42.7908 -74.0811 250° West 257 296 9,300 1,920 Climbing Boston Center
05:49AM 42.7583 -74.1678 243° Southwest 276 318 10,900 2,040 Climbing Boston Center
05:50AM 42.6800 -74.2447 216° Southwest 306 352 13,400 2,160 Climbing Boston Center
05:51AM 42.6022 -74.2764 197° South 330 380 15,300 1,800 Climbing Boston Center
05:52AM 42.5028 -74.2369 164° South 330 380 17,100 1,740 Climbing Boston Center
05:53AM 42.4269 -74.1672 146° Southeast 347 399 18,800 1,560 Climbing Boston Center
05:54AM 42.3281 -74.0831 148° Southeast 352 405 20,300 1,380 Climbing Boston Center
05:55AM 42.2375 -74.0047 147° Southeast 376 433 21,600 1,260 Climbing Boston Center
05:56AM 42.1428 -73.9242 148° Southeast 393 452 22,900 1,200 Climbing Boston Center
05:57AM 41.9992 -73.8103 149° Southeast 418 481 24,700 1,140 Climbing New York Center
05:58AM 41.8861 -73.8331 189° South 399 459 25,900 1,200 Climbing New York Center
05:59AM 41.7764 -73.8919 202° Southwest 398 458 27,100 1,020 Climbing New York Center
06:00AM 41.6706 -73.9564 204° Southwest 409 471 28,000 420 Climbing New York Center
06:01AM 41.5747 -74.0322 211° Southwest 414 476 28,000  Level New York Center
06:02AM 41.4747 -74.1047 209° Southwest 414 476 28,000  Level New York Center
06:03AM 41.3769 -74.1772 209° Southwest 414 476 28,000  Level New York Center
06:04AM 41.2622 -74.2517 206° Southwest 415 478 28,000  Level New York Center
06:05AM 41.1642 -74.3264 210° Southwest 415 478 28,000  Level New York Center
06:06AM 41.0644 -74.3953 208° Southwest 415 478 28,000  Level New York Center
06:07AM 40.9642 -74.4697 209° Southwest 420 483 28,000  Level New York Center
06:08AM 40.8661 -74.5411 209° Southwest 415 478 28,000  Level New York Center
06:09AM 40.7658 -74.6125 208° Southwest 415 478 28,000  Level New York Center
06:10AM 40.6678 -74.6808 208° Southwest 415 478 28,000  Level New York Center
06:11AM 40.5711 -74.7628 213° Southwest 409 471 28,000  Level New York Center
06:12AM 40.4925 -74.8672 225° Southwest 409 471 28,000  Level New York Center
06:13AM 40.4200 -74.9747 228° Southwest 409 471 28,000 -180 Level New York Center
06:14AM 40.3453 -75.0792 227° Southwest 409 471 27,700 -1,260 Descending New York Center
06:15AM 40.2661 -75.1911 227° Southwest 409 471 25,500 -2,100 Descending New York Center
06:16AM 40.2000 -75.2875 228° Southwest 409 471 23,500 -1,800 Descending New York Center
06:17AM 40.1294 -75.3861 227° Southwest 396 456 22,000 -780 Descending New York Center
06:18AM 40.0631 -75.4875 229° Southwest 385 443 22,000  Level New York Center
06:19AM 39.9961 -75.5914 230° Southwest 380 437 22,000  Level New York Center
06:20AM 39.9317 -75.6925 230° Southwest 380 437 22,000  Level New York Center
06:21AM 39.8647 -75.7958 230° Southwest 380 437 22,000  Level New York Center
06:22AM 39.8000 -75.8967 230° Southwest 380 437 22,000 -1,500 Level New York Center
06:25AM 39.6333 -76.1500 230° Southwest 357 411 16,900 -2,040 Descending Potomac TRACON
06:26AM 39.5667 -76.2333 224° Southwest 337 388 15,200 -1,860 Descending Potomac TRACON
06:27AM 39.5167 -76.3333 237° Southwest 321 369 13,400 -1,560 Descending Potomac TRACON
06:28AM 39.4500 -76.4167 224° Southwest 314 361 12,000 -900 Descending Potomac TRACON
06:29AM 39.3833 -76.4833 218° Southwest 316 364 11,600 -780 Descending Potomac TRACON
06:30AM 39.3167 -76.5500 218° Southwest 308 354 10,600 -900 Descending Potomac TRACON
06:30AM 39.2500 -76.5833 201° Southwest 304 350 10,000 -360 Descending Potomac TRACON
06:31AM 39.2000 -76.6500 226° Southwest 286 329 10,000  Level Potomac TRACON
06:32AM 39.1500 -76.7167 226° Southwest 279 321 10,000  Level Potomac TRACON
06:33AM 39.1333 -76.8000 256° West 276 318 10,000 -60 Level Potomac TRACON
06:34AM 39.1000 -76.8833 243° Southwest 239 275 9,900 -960 Descending Potomac TRACON
06:35AM 39.0833 -76.9500 252° West 221 254 8,100 -2,040 Descending Potomac TRACON
06:36AM 39.0667 -77.0167 252° West 222 255 5,900 -2,400 Descending Potomac TRACON
06:37AM 39.0333 -77.0833 237° Southwest 217 250 3,300 -1,500 Descending Potomac TRACON
06:38AM 39.0000 -77.1500 237° Southwest 186 214 3,000 -300 Descending Potomac TRACON